createdAt,value
2018-02-24T00:00:42.493Z,20.67
2018-02-24T00:03:10.567Z,19.23
2018-02-24T00:05:38.739Z,18.27
2018-02-24T00:08:06.910Z,18.27
2018-02-24T00:10:34.979Z,19.00
2018-02-24T00:13:02.949Z,20.90
2018-02-24T00:15:31.664Z,19.77
2018-02-24T00:18:00.528Z,19.85
2018-02-24T00:20:28.810Z,20.92
2018-02-24T00:22:56.972Z,20.27
2018-02-24T00:25:25.159Z,19.92
2018-02-24T00:27:53.219Z,20.25
2018-02-24T00:30:21.403Z,22.27
2018-02-24T00:32:49.679Z,19.60
2018-02-24T00:35:17.738Z,18.55
2018-02-24T00:37:45.820Z,18.52
2018-02-24T00:40:14.383Z,19.85
2018-02-24T00:42:42.362Z,18.33
2018-02-24T00:45:10.542Z,19.20
2018-02-24T00:47:40.243Z,18.27
2018-02-24T00:50:08.315Z,19.77
2018-02-24T00:52:36.500Z,17.85
2018-02-24T00:55:04.664Z,17.48
2018-02-24T00:57:32.948Z,20.50
2018-02-24T01:00:01.008Z,16.75
2018-02-24T01:02:29.090Z,16.92
2018-02-24T01:04:57.257Z,17.75
2018-02-24T01:07:25.324Z,17.70
2018-02-24T01:09:53.216Z,17.90
2018-02-24T01:12:22.195Z,18.23
2018-02-24T01:14:50.369Z,19.52
2018-02-24T01:17:18.535Z,18.62
2018-02-24T01:19:46.603Z,18.85
2018-02-24T01:22:14.777Z,19.05
2018-02-24T01:24:42.745Z,19.75
2018-02-24T01:27:10.928Z,19.10
2018-02-24T01:29:39.092Z,19.37
2018-02-24T01:32:07.172Z,19.35
2018-02-24T01:34:35.347Z,21.55
2018-02-24T01:37:03.390Z,22.08
2018-02-24T01:39:31.590Z,19.45
2018-02-24T01:41:59.757Z,21.50
2018-02-24T01:44:28.544Z,20.60
2018-02-24T01:46:56.716Z,19.92
2018-02-24T01:49:24.900Z,21.37
2018-02-24T01:51:53.777Z,20.95
2018-02-24T01:54:21.747Z,22.25
2018-02-24T01:56:50.436Z,20.45
2018-02-24T01:59:18.513Z,20.80
2018-02-24T02:01:46.678Z,22.33
2018-02-24T02:04:14.662Z,22.13
2018-02-24T02:06:42.715Z,20.45
2018-02-24T02:09:10.847Z,20.98
2018-02-24T02:11:38.971Z,20.67
2018-02-24T02:14:07.137Z,23.70
2018-02-24T02:16:35.103Z,22.15
2018-02-24T02:19:03.288Z,22.02
2018-02-24T02:21:31.461Z,23.30
2018-02-24T02:23:59.521Z,24.00
2018-02-24T02:26:27.591Z,23.92
2018-02-24T02:28:55.663Z,21.85
2018-02-24T02:31:23.795Z,21.27
2018-02-24T02:33:51.920Z,21.95
2018-02-24T02:36:20.194Z,20.90
2018-02-24T02:38:48.369Z,21.37
2018-02-24T02:41:16.430Z,20.90
2018-02-24T02:43:44.614Z,21.48
2018-02-24T02:46:14.209Z,19.73
2018-02-24T02:48:42.383Z,20.23
2018-02-24T02:51:10.350Z,19.67
2018-02-24T02:53:38.426Z,23.38
2018-02-24T02:56:06.599Z,21.25
2018-02-24T02:58:34.560Z,20.08
2018-02-24T03:01:02.637Z,19.00
2018-02-24T03:03:30.718Z,23.02
2018-02-24T03:05:58.881Z,21.42
2018-02-24T03:08:27.064Z,22.95
2018-02-24T03:10:55.327Z,20.90
2018-02-24T03:13:23.500Z,23.90
2018-02-24T03:15:51.677Z,21.65
2018-02-24T03:18:19.852Z,24.37
2018-02-24T03:20:47.921Z,22.62
2018-02-24T03:23:16.002Z,20.00
2018-02-24T03:25:44.165Z,25.08
2018-02-24T03:28:12.349Z,24.45
2018-02-24T03:30:40.414Z,23.58
2018-02-24T03:33:08.481Z,22.33
2018-02-24T03:35:36.656Z,23.02
2018-02-24T03:38:04.831Z,23.60
2018-02-24T03:40:32.901Z,25.27
2018-02-24T03:43:01.079Z,24.37
2018-02-24T03:45:29.145Z,24.05
2018-02-24T03:47:57.315Z,21.95
2018-02-24T03:50:26.000Z,21.62
2018-02-24T03:52:54.241Z,23.10
2018-02-24T03:55:22.354Z,22.08
2018-02-24T03:57:51.957Z,22.08
2018-02-24T04:00:20.038Z,24.95
2018-02-24T04:02:48.212Z,24.83
2018-02-24T04:05:16.589Z,23.55
2018-02-24T04:07:45.377Z,24.35
2018-02-24T04:10:13.543Z,23.60
2018-02-24T04:12:41.715Z,21.25
2018-02-24T04:15:09.892Z,21.75
2018-02-24T04:17:38.065Z,24.17
2018-02-24T04:20:05.970Z,20.67
2018-02-24T04:22:33.996Z,23.62
2018-02-24T04:25:02.173Z,21.90
2018-02-24T04:27:30.348Z,21.77
2018-02-24T04:29:58.426Z,22.77
2018-02-24T04:32:26.498Z,21.95
2018-02-24T04:34:54.670Z,23.65
2018-02-24T04:37:22.948Z,21.48
2018-02-24T04:39:51.112Z,20.40
2018-02-24T04:42:19.181Z,20.65
2018-02-24T04:44:47.363Z,20.45
2018-02-24T04:47:15.529Z,23.95
2018-02-24T04:49:43.701Z,22.00
2018-02-24T04:52:11.773Z,21.23
2018-02-24T04:54:39.844Z,22.87
2018-02-24T04:57:07.917Z,21.23
2018-02-24T04:59:35.983Z,24.02
2018-02-24T05:02:04.055Z,23.10
2018-02-24T05:04:32.127Z,23.38
2018-02-24T05:07:00.310Z,23.92
2018-02-24T05:09:28.883Z,23.60
2018-02-24T05:11:57.169Z,25.20
2018-02-24T05:14:26.156Z,22.37
2018-02-24T05:16:54.227Z,21.67
2018-02-24T05:19:22.195Z,22.90
2018-02-24T05:21:50.267Z,23.45
2018-02-24T05:24:19.254Z,22.65
2018-02-24T05:26:47.329Z,22.95
2018-02-24T05:29:15.513Z,20.67
2018-02-24T05:31:43.726Z,22.55
2018-02-24T05:34:11.849Z,22.52
2018-02-24T05:36:39.917Z,22.05
2018-02-24T05:39:07.988Z,23.85
2018-02-24T05:41:36.169Z,22.25
2018-02-24T05:44:04.231Z,22.77
2018-02-24T05:46:32.200Z,20.65
2018-02-24T05:49:00.377Z,22.35
2018-02-24T05:51:28.445Z,21.33
2018-02-24T05:53:56.622Z,23.35
2018-02-24T05:56:24.907Z,21.17
2018-02-24T05:58:53.082Z,23.33
2018-02-24T06:01:21.245Z,23.33
2018-02-24T06:03:49.421Z,22.55
2018-02-24T06:06:17.594Z,21.75
2018-02-24T06:08:45.776Z,25.00
2018-02-24T06:11:13.937Z,22.83
2018-02-24T06:13:42.113Z,23.27
2018-02-24T06:16:10.285Z,26.17
2018-02-24T06:18:38.354Z,40.10
2018-02-24T06:21:06.321Z,48.83
2018-02-24T06:23:34.398Z,37.92
2018-02-24T06:26:02.464Z,101.40
2018-02-24T06:28:30.637Z,89.70
2018-02-24T06:30:58.815Z,62.35
2018-02-24T06:33:26.885Z,125.68
2018-02-24T06:35:54.851Z,57.03
2018-02-24T06:38:23.035Z,69.97
2018-02-24T06:40:51.414Z,27.50
2018-02-24T06:43:19.587Z,29.40
2018-02-24T06:45:48.479Z,28.15
2018-02-24T06:48:16.647Z,34.22
2018-02-24T06:50:44.710Z,74.55
2018-02-24T06:53:12.794Z,80.10
2018-02-24T06:55:41.071Z,116.20
2018-02-24T06:58:09.233Z,57.70
2018-02-24T07:00:37.302Z,41.65
2018-02-24T07:03:05.480Z,27.73
2018-02-24T07:05:33.547Z,31.50
2018-02-24T07:08:01.620Z,26.23
2018-02-24T07:10:29.794Z,27.17
2018-02-24T07:12:57.979Z,23.12
2018-02-24T07:15:26.143Z,25.95
2018-02-24T07:17:54.311Z,24.45
2018-02-24T07:20:22.382Z,23.87
2018-02-24T07:22:50.467Z,26.45
2018-02-24T07:25:19.349Z,25.05
2018-02-24T07:27:48.132Z,26.00
2018-02-24T07:30:16.317Z,22.35
2018-02-24T07:32:44.481Z,22.67
2018-02-24T07:35:12.664Z,22.15
2018-02-24T07:37:40.829Z,24.52
2018-02-24T07:40:08.820Z,23.50
2018-02-24T07:42:37.799Z,21.77
2018-02-24T07:45:05.964Z,22.55
2018-02-24T07:47:34.751Z,22.00
2018-02-24T07:50:02.819Z,19.40
2018-02-24T07:52:30.902Z,20.25
2018-02-24T07:54:59.070Z,19.98
2018-02-24T07:57:27.135Z,20.27
2018-02-24T07:59:55.205Z,19.60
2018-02-24T08:02:23.385Z,20.42
2018-02-24T08:04:51.557Z,19.00
2018-02-24T08:07:19.739Z,19.48
2018-02-24T08:09:48.628Z,21.02
2018-02-24T08:12:16.801Z,22.08
2018-02-24T08:14:44.963Z,63.47
2018-02-24T08:17:13.859Z,27.23
2018-02-24T08:19:42.641Z,22.52
2018-02-24T08:22:10.718Z,24.20
2018-02-24T08:24:38.749Z,22.13
2018-02-24T08:27:07.485Z,21.35
2018-02-24T08:29:35.641Z,20.23
2018-02-24T08:32:03.725Z,19.98
2018-02-24T08:34:32.410Z,22.60
2018-02-24T08:37:00.483Z,18.92
2018-02-24T08:39:28.541Z,21.10
2018-02-24T08:41:57.227Z,20.02
2018-02-24T08:44:25.412Z,18.77
2018-02-24T08:46:53.572Z,22.00
2018-02-24T08:49:21.746Z,20.70
2018-02-24T08:51:49.829Z,20.85
2018-02-24T08:54:17.893Z,20.00
2018-02-24T08:56:46.882Z,18.77
2018-02-24T08:59:15.060Z,20.25
2018-02-24T09:01:43.137Z,17.70
2018-02-24T09:04:11.203Z,19.50
2018-02-24T09:06:39.383Z,18.83
2018-02-24T09:09:07.556Z,18.58
2018-02-24T09:11:35.728Z,20.17
2018-02-24T09:14:04.005Z,16.65
2018-02-24T09:16:32.063Z,16.62
2018-02-24T09:19:00.751Z,19.85
2018-02-24T09:21:28.928Z,17.37
2018-02-24T09:23:56.995Z,17.98
2018-02-24T09:26:25.065Z,19.33
2018-02-24T09:28:53.137Z,17.98
2018-02-24T09:31:21.424Z,17.35
2018-02-24T09:33:49.591Z,18.90
2018-02-24T09:36:17.660Z,16.05
2018-02-24T09:38:45.627Z,18.35
2018-02-24T09:41:13.697Z,17.42
2018-02-24T09:43:42.487Z,17.37
2018-02-24T09:46:10.514Z,16.30
2018-02-24T09:48:38.741Z,14.70
2018-02-24T09:51:07.019Z,15.25
2018-02-24T09:53:35.190Z,18.08
2018-02-24T09:56:03.250Z,17.05
2018-02-24T09:58:31.424Z,16.85
2018-02-24T10:01:00.931Z,16.42
2018-02-24T10:03:28.601Z,16.65
2018-02-24T10:05:56.673Z,17.27
2018-02-24T10:08:24.836Z,17.83
2018-02-24T10:10:52.904Z,15.40
2018-02-24T10:13:20.988Z,15.82
2018-02-24T10:15:49.047Z,16.77
2018-02-24T10:18:17.231Z,16.15
2018-02-24T10:20:45.289Z,16.55
2018-02-24T10:23:13.374Z,16.27
2018-02-24T10:25:41.538Z,15.38
2018-02-24T10:28:09.619Z,16.58
2018-02-24T10:30:37.681Z,15.48
2018-02-24T10:33:05.762Z,18.58
2018-02-24T10:35:34.447Z,16.20
2018-02-24T10:38:02.506Z,17.73
2018-02-24T10:40:31.510Z,16.00
2018-02-24T10:42:59.676Z,17.17
2018-02-24T10:45:27.754Z,16.35
2018-02-24T10:47:58.556Z,18.00
2018-02-24T10:50:26.652Z,17.52
2018-02-24T10:52:54.835Z,18.37
2018-02-24T10:55:23.622Z,17.30
2018-02-24T10:57:52.399Z,16.02
2018-02-24T11:00:20.473Z,17.00
2018-02-24T11:02:48.541Z,17.08
2018-02-24T11:05:16.616Z,17.90
2018-02-24T11:07:44.695Z,16.40
2018-02-24T11:10:12.857Z,16.23
2018-02-24T11:12:41.030Z,16.20
2018-02-24T11:15:09.318Z,15.90
2018-02-24T11:20:12.423Z,15.50
2018-02-24T11:22:40.587Z,14.50
2018-02-24T11:25:08.771Z,14.27
2018-02-24T11:27:36.834Z,15.50
2018-02-24T11:30:05.723Z,15.73
2018-02-24T11:32:33.802Z,14.90
2018-02-24T11:35:01.975Z,14.00
2018-02-24T11:37:30.149Z,16.77
2018-02-24T11:39:58.313Z,15.43
2018-02-24T11:42:27.212Z,15.60
2018-02-24T11:44:55.276Z,16.33
2018-02-24T11:47:23.240Z,15.50
2018-02-24T11:49:51.419Z,15.57
2018-02-24T11:52:22.001Z,15.40
2018-02-24T11:54:50.014Z,18.13
2018-02-24T11:57:18.187Z,16.93
2018-02-24T11:59:46.156Z,16.47
2018-02-24T12:02:14.334Z,17.13
2018-02-24T12:04:42.508Z,16.50
2018-02-24T12:07:10.688Z,17.23
2018-02-24T12:09:38.854Z,16.50
2018-02-24T12:12:07.024Z,17.57
2018-02-24T12:14:35.918Z,16.50
2018-02-24T12:17:04.089Z,16.30
2018-02-24T12:19:34.825Z,18.73
2018-02-24T12:22:14.729Z,18.87
2018-02-24T12:24:54.293Z,17.83
2018-02-24T12:27:22.278Z,16.27
2018-02-24T12:29:50.361Z,18.27
2018-02-24T12:32:18.421Z,17.70
2018-02-24T12:34:47.119Z,16.77
2018-02-24T12:37:16.000Z,15.87
2018-02-24T12:39:45.502Z,16.57
2018-02-24T12:42:13.674Z,18.53
2018-02-24T12:44:41.758Z,18.20
2018-02-24T12:47:10.024Z,17.53
2018-02-24T12:49:38.263Z,18.33
2018-02-24T12:52:06.573Z,17.35
2018-02-24T12:54:34.644Z,16.90
2018-02-24T12:57:02.919Z,17.10
2018-02-24T12:59:30.990Z,18.87
2018-02-24T13:01:59.789Z,21.48
2018-02-24T13:04:27.957Z,18.85
2018-02-24T13:06:55.871Z,17.92
2018-02-24T13:09:23.889Z,25.40
2018-02-24T13:12:00.334Z,23.87
2018-02-24T13:14:28.646Z,23.23
2018-02-24T13:16:58.559Z,23.45
2018-02-24T13:19:27.142Z,24.87
2018-02-24T13:21:55.202Z,23.98
2018-02-24T13:24:23.437Z,25.80
2018-02-24T13:26:52.584Z,25.83
2018-02-24T13:29:23.414Z,25.27
2018-02-24T13:31:53.015Z,27.10
2018-02-24T13:34:21.201Z,30.40
2018-02-24T13:36:49.471Z,26.98
2018-02-24T13:39:18.402Z,24.83
2018-02-24T13:41:46.540Z,24.58
2018-02-24T13:44:14.816Z,22.75
2018-02-24T13:46:42.745Z,23.67
2018-02-24T13:49:10.742Z,23.12
2018-02-24T13:51:40.463Z,24.15
2018-02-24T13:54:08.631Z,23.55
2018-02-24T13:56:39.472Z,22.87
2018-02-24T13:59:07.646Z,23.95
2018-02-24T14:01:35.922Z,22.35
2018-02-24T14:04:04.089Z,21.67
2018-02-24T14:06:32.768Z,22.50
2018-02-24T14:09:00.957Z,21.35
2018-02-24T14:11:29.116Z,20.90
2018-02-24T14:13:57.190Z,24.25
2018-02-24T14:16:25.361Z,24.12
2018-02-24T14:18:54.365Z,21.55
2018-02-24T14:21:23.357Z,22.45
2018-02-24T14:23:51.416Z,25.05
2018-02-24T14:26:19.588Z,24.55
2018-02-24T14:28:47.775Z,20.77
2018-02-24T14:31:16.451Z,21.23
2018-02-24T14:33:44.623Z,25.20
2018-02-24T14:36:12.801Z,20.67
2018-02-24T14:38:40.982Z,20.27
2018-02-24T14:41:09.258Z,23.73
2018-02-24T14:43:37.316Z,22.13
2018-02-24T14:46:05.496Z,22.95
2018-02-24T14:48:33.676Z,22.48
2018-02-24T14:51:01.836Z,20.80
2018-02-24T14:53:30.364Z,21.87
2018-02-24T14:55:58.496Z,22.08
2018-02-24T14:58:26.677Z,23.05
2018-02-24T15:00:54.844Z,29.48
2018-02-24T15:03:23.015Z,59.13
2018-02-24T15:05:51.187Z,104.53
2018-02-24T15:08:19.270Z,80.75
2018-02-24T15:10:47.327Z,40.17
2018-02-24T15:13:15.410Z,24.40
2018-02-24T15:15:43.584Z,26.95
2018-02-24T15:18:11.751Z,22.35
2018-02-24T15:20:39.923Z,22.45
2018-02-24T15:23:08.104Z,20.00
2018-02-24T15:25:36.175Z,23.05
2018-02-24T15:28:04.443Z,20.67
2018-02-24T15:30:33.366Z,22.85
2018-02-24T15:33:02.333Z,23.10
2018-02-24T15:35:30.393Z,25.65
2018-02-24T15:37:58.464Z,22.08
2018-02-24T15:40:27.366Z,24.73
2018-02-24T15:42:55.551Z,22.37
2018-02-24T15:45:24.420Z,25.98
2018-02-24T15:47:52.596Z,29.63
2018-02-24T15:50:20.777Z,23.98
2018-02-24T15:52:48.943Z,25.62
2018-02-24T15:55:17.133Z,23.58
2018-02-24T15:57:46.217Z,29.12
2018-02-24T16:00:14.277Z,32.10
2018-02-24T16:02:42.457Z,35.45
2018-02-24T16:05:10.636Z,34.92
2018-02-24T16:07:38.798Z,27.83
2018-02-24T16:10:06.983Z,34.17
2018-02-24T16:12:35.261Z,27.58
2018-02-24T16:15:03.423Z,49.47
2018-02-24T16:17:31.593Z,25.35
2018-02-24T16:19:59.779Z,94.65
2018-02-24T16:22:27.941Z,30.27
2018-02-24T16:24:56.027Z,60.83
2018-02-24T16:27:24.299Z,30.90
2018-02-24T16:29:52.576Z,28.02
2018-02-24T16:32:20.843Z,31.62
2018-02-24T16:34:48.910Z,44.17
2018-02-24T16:37:16.994Z,27.65
2018-02-24T16:39:45.058Z,28.85
2018-02-24T16:42:13.154Z,24.95
2018-02-24T16:44:41.413Z,26.98
2018-02-24T16:47:09.575Z,29.30
2018-02-24T16:49:37.749Z,23.70
2018-02-24T16:52:05.932Z,24.55
2018-02-24T16:54:34.811Z,24.70
2018-02-24T16:57:02.983Z,25.73
2018-02-24T16:59:31.067Z,24.77
2018-02-24T17:01:59.241Z,24.50
2018-02-24T17:04:27.414Z,23.60
2018-02-24T17:06:55.578Z,25.17
2018-02-24T17:09:23.862Z,27.83
2018-02-24T17:11:52.127Z,25.88
2018-02-24T17:14:20.620Z,24.10
2018-02-24T17:16:48.786Z,25.52
2018-02-24T17:19:16.865Z,26.85
2018-02-24T17:21:45.133Z,27.35
2018-02-24T17:24:13.305Z,26.70
2018-02-24T17:26:43.119Z,24.80
2018-02-24T17:29:11.402Z,31.33
2018-02-24T17:31:39.563Z,26.77
2018-02-24T17:34:07.634Z,30.33
2018-02-24T17:36:36.727Z,27.25
2018-02-24T17:39:05.005Z,26.70
2018-02-24T17:41:33.796Z,27.40
2018-02-24T17:44:01.992Z,26.15
2018-02-24T17:46:30.960Z,24.40
2018-02-24T17:48:59.674Z,24.90
2018-02-24T17:51:28.534Z,25.42
2018-02-24T17:53:58.476Z,26.08
2018-02-24T17:56:27.201Z,26.25
2018-02-24T17:58:55.307Z,26.42
2018-02-24T18:01:23.494Z,27.37
2018-02-24T18:03:51.492Z,26.80
2018-02-24T18:06:20.547Z,27.65
2018-02-24T18:08:48.616Z,28.40
2018-02-24T18:11:16.894Z,27.13
2018-02-24T18:13:44.966Z,26.98
2018-02-24T18:16:13.150Z,27.17
2018-02-24T18:18:41.310Z,27.30
2018-02-24T18:21:09.485Z,31.27
2018-02-24T18:23:38.993Z,30.37
2018-02-24T18:26:07.166Z,27.92
2018-02-24T18:28:35.744Z,29.60
2018-02-24T18:31:03.968Z,32.15
2018-02-24T18:33:32.192Z,31.67
2018-02-24T18:36:00.481Z,31.80
2018-02-24T18:38:28.655Z,31.85
2018-02-24T18:40:56.829Z,33.22
2018-02-24T18:43:24.887Z,28.08
2018-02-24T18:45:53.065Z,29.87
2018-02-24T18:48:21.234Z,30.17
2018-02-24T18:50:50.034Z,28.23
2018-02-24T18:53:18.092Z,28.50
2018-02-24T18:55:46.381Z,29.10
2018-02-24T18:58:14.556Z,30.98
2018-02-24T19:00:42.613Z,30.12
2018-02-24T19:03:11.194Z,28.52
2018-02-24T19:05:39.476Z,30.40
2018-02-24T19:08:07.647Z,26.87
2018-02-24T19:10:35.824Z,27.75
2018-02-24T19:13:03.900Z,30.40
2018-02-24T19:15:32.064Z,25.98
2018-02-24T19:18:00.135Z,31.05
2018-02-24T19:20:28.425Z,30.67
2018-02-24T19:22:56.580Z,31.20
2018-02-24T19:25:25.078Z,30.62
2018-02-24T19:27:53.654Z,31.05
2018-02-24T19:30:22.042Z,28.85
2018-02-24T19:32:50.233Z,28.60
2018-02-24T19:35:19.096Z,30.08
2018-02-24T19:37:47.075Z,33.03
2018-02-24T19:40:15.130Z,30.77
2018-02-24T19:42:44.122Z,31.98
2018-02-24T19:45:12.195Z,32.63
2018-02-24T19:47:40.379Z,30.30
2018-02-24T19:50:08.541Z,30.40
2018-02-24T19:52:37.021Z,31.20
2018-02-24T19:55:06.030Z,31.85
2018-02-24T19:57:37.342Z,30.27
2018-02-24T20:00:07.800Z,28.90
2018-02-24T20:02:35.866Z,31.42
2018-02-24T20:05:03.997Z,31.50
2018-02-24T20:07:32.372Z,32.97
2018-02-24T20:10:00.494Z,30.05
2018-02-24T20:12:28.450Z,30.02
2018-02-24T20:14:56.535Z,29.05
2018-02-24T20:17:25.220Z,34.40
2018-02-24T20:19:55.019Z,34.50
2018-02-24T20:22:25.970Z,41.00
2018-02-24T20:24:54.028Z,34.83
2018-02-24T20:27:25.275Z,33.78
2018-02-24T20:29:53.459Z,36.40
2018-02-24T20:32:21.632Z,32.78
2018-02-24T20:34:49.692Z,33.85
2018-02-24T20:37:18.800Z,35.80
2018-02-24T20:39:46.860Z,34.90
2018-02-24T20:42:15.849Z,36.88
2018-02-24T20:44:44.035Z,36.92
2018-02-24T20:47:12.196Z,33.67
2018-02-24T20:49:40.370Z,36.50
2018-02-24T20:52:08.659Z,34.85
2018-02-24T20:54:36.822Z,36.95
2018-02-24T20:57:05.005Z,37.00
2018-02-24T20:59:34.195Z,34.90
2018-02-24T21:02:02.268Z,34.28
2018-02-24T21:04:30.342Z,36.17
2018-02-24T21:06:58.724Z,35.35
2018-02-24T21:09:26.890Z,35.95
2018-02-24T21:11:55.053Z,35.60
2018-02-24T21:14:23.232Z,35.05
2018-02-24T21:16:51.502Z,34.40
2018-02-24T21:19:19.584Z,35.92
2018-02-24T21:21:47.757Z,34.75
2018-02-24T21:24:15.938Z,36.20
2018-02-24T21:26:44.876Z,35.20
2018-02-24T21:29:12.887Z,36.33
2018-02-24T21:31:40.970Z,35.17
2018-02-24T21:34:09.033Z,31.62
2018-02-24T21:36:37.101Z,34.22
2018-02-24T21:39:05.286Z,32.30
2018-02-24T21:41:33.479Z,35.22
2018-02-24T21:44:02.342Z,34.00
2018-02-24T21:46:31.130Z,33.42
2018-02-24T21:49:00.029Z,35.35
2018-02-24T21:51:28.720Z,33.03
2018-02-24T21:53:57.596Z,34.30
2018-02-24T21:56:25.765Z,34.20
2018-02-24T21:58:54.147Z,33.97
2018-02-24T22:01:24.884Z,34.17
2018-02-24T22:03:52.947Z,33.55
2018-02-24T22:06:21.030Z,34.80
2018-02-24T22:08:49.197Z,32.22
2018-02-24T22:11:17.368Z,32.92
2018-02-24T22:13:45.440Z,36.22
2018-02-24T22:16:14.440Z,34.20
2018-02-24T22:18:43.224Z,34.33
2018-02-24T22:21:11.189Z,32.70
2018-02-24T22:23:39.371Z,32.53
2018-02-24T22:26:07.430Z,33.53
2018-02-24T22:28:35.606Z,34.88
2018-02-24T22:31:03.777Z,36.65
2018-02-24T22:33:31.967Z,34.28
2018-02-24T22:36:00.238Z,36.92
2018-02-24T22:38:28.413Z,34.40
2018-02-24T22:40:56.582Z,37.28
2018-02-24T22:43:24.542Z,37.72
2018-02-24T22:45:53.333Z,38.40
2018-02-24T22:48:28.479Z,38.65
2018-02-24T22:50:56.645Z,39.67
2018-02-24T22:53:24.819Z,38.30
2018-02-24T22:55:53.066Z,40.58
2018-02-24T22:58:21.163Z,39.55
2018-02-24T23:00:49.338Z,37.05
2018-02-24T23:03:17.510Z,39.83
2018-02-24T23:05:46.307Z,37.03
2018-02-24T23:08:14.370Z,36.10
2018-02-24T23:10:42.551Z,36.97
2018-02-24T23:13:10.611Z,36.85
2018-02-24T23:15:38.686Z,39.80
2018-02-24T23:18:06.753Z,38.00
2018-02-24T23:20:34.930Z,37.80
2018-02-24T23:23:02.997Z,36.75
2018-02-24T23:25:31.067Z,38.03
2018-02-24T23:27:59.251Z,39.80
2018-02-24T23:30:27.313Z,36.90
2018-02-24T23:32:55.280Z,39.22
2018-02-24T23:35:23.250Z,39.60
2018-02-24T23:37:51.429Z,39.75
2018-02-24T23:40:20.532Z,41.65
2018-02-24T23:42:51.095Z,41.33
2018-02-24T23:45:19.334Z,39.67
2018-02-24T23:47:48.531Z,42.65
2018-02-24T23:50:16.706Z,41.75
2018-02-24T23:52:44.872Z,43.08
2018-02-24T23:55:12.938Z,41.75
2018-02-24T23:57:41.118Z,43.17
